Terminal Aerodrome Forecast
Issued by NWS

Home | Current Version | Previous Version | Text Only | Print | Product List | Glossary On
Versions: 1 2 3 4 5 6 7 8 9 10 11 12 13 14 15 16 17 18 19 20 21
000
FTUS45 KBYZ 240522
TAFLVM
TAF
KLVM 240522Z 2406/2506 07015KT 4SM -SN BR SCT007 BKN015 OVC025
     FM240800 VRB06KT 2SM -SN BR SCT007 BKN015 OVC020
     FM241800 34007KT 5SM -SN BR SCT015 BKN025 OVC040=

USA.gov is the U.S. government's official web portal to all federal, state and local government web resources and services.